Airfield :
LOGIN :

Register | Disclaimer

   EN    FR    IT 

 










Legend :    VFR   Marginal VFR   IFR   Intensive IFR   Very Intensive IFR
Visi :
Ceiling :
>= 8 km
>= 3000ft
5 to 8 km
1000 to 3000 ft
1500m to 5 km
500 to 1000 ft
800 to 1500m
200 to 500 ft
< 800m
< 200 ft
Symbols :   Thunderstorms  Fog  Heavy snow  Heavy precipitations  Wind > 20 kt
SIGMETs :     Misc.  Thunderstorms  Icing  Turbulence  Mountain Waves  Volcanic Ashes







- Airport Elevation : 359 ft
- IATA code : BVA
- Download approach charts


LFOB - Beauvais

CURRENT METAR :
  • 162100Z AUTO 21008KT 180V250 9999 OVC008 05/04 Q1006 TEMPO 3000 RA OVC004

EXPIRED METARs :
  • 162030Z AUTO 21009KT 9999 OVC007 05/04 Q1006 TEMPO 3000 RA OVC004
  • 162000Z AUTO 21007KT 180V240 7000 OVC006 05/04 Q1006 TEMPO 3000 RA OVC004
  • 161930Z AUTO 21011KT 9000 BKN009 OVC014 05/04 Q1006 TEMPO 3000 RA OVC004
  • 161900Z AUTO 20012KT 9999 OVC018 06/03 Q1006 BECMG OVC013
  • 161830Z AUTO 21011KT 9999 BKN020 OVC029 06/03 Q1006 BECMG OVC013

TAF AMD TAF LFOB
Valid from the 16 at 20:00 until the 17 at 18:00 UTC


162018Z 1620/1718 22012KT 9999 OVC013
TEMPO 1620/1701 3000 RA OVC004
FM170100 22012KT 9999 SCT020
PROB30 1701/1708 BKN008
BECMG 1708/1710 30010KT
TEMPO 1710/1714 3000 SHRA BKN013TCU
ATIS : +33 3 44 11 49 28
No reported NOTAMs for that airfield.



MET'MAP, your aeronautical weather chart ! - Copyright ORBIFLY December 2007 - Disclaimer

ORBIFLY MET'MAP TEAM :

Programming & Development : Alexandra Zaïnal
Concept & Development : Baudouin d'Aumeries
Co-Development & Prog : Marc-Olivier Méhu
Technical & hardware support : Manuel Goepfert

Contact : metmap@orbifly.com




SOURCES & CREDITS :

   NOAA